sensor_id;sensor_type;location;lat;lon;timestamp;temperature;humidity
16040;DHT22;8124;48.634;8.120;2023-04-03T00:00:33;6.30;99.90
16040;DHT22;8124;48.634;8.120;2023-04-03T00:05:38;6.20;99.90
16040;DHT22;8124;48.634;8.120;2023-04-03T00:10:41;6.30;99.90
16040;DHT22;8124;48.634;8.120;2023-04-03T00:15:44;6.30;99.90
16040;DHT22;8124;48.634;8.120;2023-04-03T00:20:48;6.20;99.90
16040;DHT22;8124;48.634;8.120;2023-04-03T00:25:52;6.30;99.90
16040;DHT22;8124;48.634;8.120;2023-04-03T00:30:55;6.60;99.90
16040;DHT22;8124;48.634;8.120;2023-04-03T00:35:59;6.80;99.90
16040;DHT22;8124;48.634;8.120;2023-04-03T00:41:07;7.10;99.90
16040;DHT22;8124;48.634;8.120;2023-04-03T00:46:10;6.80;99.90
16040;DHT22;8124;48.634;8.120;2023-04-03T00:51:19;6.60;99.90
16040;DHT22;8124;48.634;8.120;2023-04-03T00:56:25;6.80;99.90
16040;DHT22;8124;48.634;8.120;2023-04-03T01:01:29;7.10;99.90
16040;DHT22;8124;48.634;8.120;2023-04-03T01:06:36;7.20;99.90
16040;DHT22;8124;48.634;8.120;2023-04-03T01:11:42;7.40;99.90
16040;DHT22;8124;48.634;8.120;2023-04-03T01:16:52;7.10;99.90
16040;DHT22;8124;48.634;8.120;2023-04-03T01:22:16;7.30;99.90
16040;DHT22;8124;48.634;8.120;2023-04-03T01:27:22;6.60;99.90
16040;DHT22;8124;48.634;8.120;2023-04-03T01:32:26;6.30;99.90
16040;DHT22;8124;48.634;8.120;2023-04-03T01:37:29;6.10;99.90
16040;DHT22;8124;48.634;8.120;2023-04-03T01:42:33;6.10;99.90
16040;DHT22;8124;48.634;8.120;2023-04-03T01:47:37;5.90;99.90
16040;DHT22;8124;48.634;8.120;2023-04-03T01:52:40;5.80;99.90
16040;DHT22;8124;48.634;8.120;2023-04-03T01:57:43;5.80;99.90
16040;DHT22;8124;48.634;8.120;2023-04-03T02:02:47;6.00;99.90
16040;DHT22;8124;48.634;8.120;2023-04-03T02:07:50;6.00;99.90
16040;DHT22;8124;48.634;8.120;2023-04-03T02:12:53;6.20;99.90
16040;DHT22;8124;48.634;8.120;2023-04-03T02:17:58;6.10;99.90
16040;DHT22;8124;48.634;8.120;2023-04-03T02:23:01;6.20;99.90
16040;DHT22;8124;48.634;8.120;2023-04-03T02:28:05;6.20;99.90
16040;DHT22;8124;48.634;8.120;2023-04-03T02:33:09;6.30;99.90
16040;DHT22;8124;48.634;8.120;2023-04-03T02:38:13;6.30;99.90
16040;DHT22;8124;48.634;8.120;2023-04-03T02:43:16;6.20;99.90
16040;DHT22;8124;48.634;8.120;2023-04-03T02:48:22;6.10;99.90
16040;DHT22;8124;48.634;8.120;2023-04-03T02:53:25;5.90;99.90
16040;DHT22;8124;48.634;8.120;2023-04-03T02:58:28;6.10;99.90
16040;DHT22;8124;48.634;8.120;2023-04-03T03:03:34;6.20;99.90
16040;DHT22;8124;48.634;8.120;2023-04-03T03:08:38;6.50;99.90
16040;DHT22;8124;48.634;8.120;2023-04-03T03:13:41;6.70;99.90
16040;DHT22;8124;48.634;8.120;2023-04-03T03:18:48;6.70;99.90
16040;DHT22;8124;48.634;8.120;2023-04-03T03:23:51;6.70;99.90
16040;DHT22;8124;48.634;8.120;2023-04-03T03:28:54;6.20;99.90
16040;DHT22;8124;48.634;8.120;2023-04-03T03:33:58;6.30;99.90
16040;DHT22;8124;48.634;8.120;2023-04-03T03:39:02;6.40;99.90
16040;DHT22;8124;48.634;8.120;2023-04-03T03:44:05;6.50;99.90
16040;DHT22;8124;48.634;8.120;2023-04-03T03:49:10;6.60;99.90
16040;DHT22;8124;48.634;8.120;2023-04-03T03:54:14;7.00;99.90
16040;DHT22;8124;48.634;8.120;2023-04-03T03:59:17;7.00;99.90
16040;DHT22;8124;48.634;8.120;2023-04-03T04:04:23;7.00;99.90
16040;DHT22;8124;48.634;8.120;2023-04-03T04:09:26;6.80;99.90
16040;DHT22;8124;48.634;8.120;2023-04-03T04:14:30;6.60;99.90
16040;DHT22;8124;48.634;8.120;2023-04-03T04:19:35;6.40;99.90
16040;DHT22;8124;48.634;8.120;2023-04-03T04:24:39;6.60;99.90
16040;DHT22;8124;48.634;8.120;2023-04-03T04:29:43;6.50;99.90
16040;DHT22;8124;48.634;8.120;2023-04-03T04:34:48;6.50;99.90
16040;DHT22;8124;48.634;8.120;2023-04-03T04:39:51;6.80;99.90
16040;DHT22;8124;48.634;8.120;2023-04-03T04:44:54;6.80;99.90
16040;DHT22;8124;48.634;8.120;2023-04-03T04:49:59;6.50;99.90
16040;DHT22;8124;48.634;8.120;2023-04-03T04:55:03;6.10;99.90
16040;DHT22;8124;48.634;8.120;2023-04-03T05:00:08;6.20;99.90
16040;DHT22;8124;48.634;8.120;2023-04-03T05:05:13;6.20;99.90
16040;DHT22;8124;48.634;8.120;2023-04-03T05:10:16;6.00;99.90
16040;DHT22;8124;48.634;8.120;2023-04-03T05:15:20;5.80;99.90
16040;DHT22;8124;48.634;8.120;2023-04-03T05:20:25;5.90;99.90
16040;DHT22;8124;48.634;8.120;2023-04-03T05:25:29;5.80;99.90
16040;DHT22;8124;48.634;8.120;2023-04-03T05:30:33;5.40;99.90
16040;DHT22;8124;48.634;8.120;2023-04-03T05:35:39;5.50;99.90
16040;DHT22;8124;48.634;8.120;2023-04-03T05:40:46;5.00;99.90
16040;DHT22;8124;48.634;8.120;2023-04-03T05:45:50;5.20;99.90
16040;DHT22;8124;48.634;8.120;2023-04-03T05:50:57;5.00;99.90
16040;DHT22;8124;48.634;8.120;2023-04-03T05:56:01;4.80;99.90
16040;DHT22;8124;48.634;8.120;2023-04-03T06:01:07;4.60;99.90
16040;DHT22;8124;48.634;8.120;2023-04-03T06:06:13;4.80;99.90
16040;DHT22;8124;48.634;8.120;2023-04-03T06:11:17;4.60;99.90
16040;DHT22;8124;48.634;8.120;2023-04-03T06:16:20;4.50;99.90
16040;DHT22;8124;48.634;8.120;2023-04-03T06:21:25;4.50;99.90
16040;DHT22;8124;48.634;8.120;2023-04-03T06:26:28;4.50;99.90
16040;DHT22;8124;48.634;8.120;2023-04-03T06:31:31;4.60;99.90
16040;DHT22;8124;48.634;8.120;2023-04-03T06:36:36;4.70;99.90
16040;DHT22;8124;48.634;8.120;2023-04-03T06:41:39;4.70;99.90
16040;DHT22;8124;48.634;8.120;2023-04-03T06:46:42;4.70;99.90
16040;DHT22;8124;48.634;8.120;2023-04-03T06:51:48;4.70;99.90
16040;DHT22;8124;48.634;8.120;2023-04-03T06:56:51;4.90;99.90
16040;DHT22;8124;48.634;8.120;2023-04-03T07:01:54;5.00;99.90
16040;DHT22;8124;48.634;8.120;2023-04-03T07:06:59;4.80;99.90
16040;DHT22;8124;48.634;8.120;2023-04-03T07:12:03;4.80;99.90
16040;DHT22;8124;48.634;8.120;2023-04-03T07:17:06;4.90;99.90
16040;DHT22;8124;48.634;8.120;2023-04-03T07:22:11;5.10;99.90
16040;DHT22;8124;48.634;8.120;2023-04-03T07:27:14;5.10;99.90
16040;DHT22;8124;48.634;8.120;2023-04-03T07:32:17;5.40;99.90
16040;DHT22;8124;48.634;8.120;2023-04-03T07:37:22;5.50;99.90
16040;DHT22;8124;48.634;8.120;2023-04-03T07:42:25;5.40;99.90
16040;DHT22;8124;48.634;8.120;2023-04-03T07:47:29;6.00;99.90
16040;DHT22;8124;48.634;8.120;2023-04-03T07:52:37;6.30;99.90
16040;DHT22;8124;48.634;8.120;2023-04-03T07:57:40;6.30;99.90
16040;DHT22;8124;48.634;8.120;2023-04-03T08:02:52;6.30;99.90
16040;DHT22;8124;48.634;8.120;2023-04-03T08:07:57;6.30;99.90
16040;DHT22;8124;48.634;8.120;2023-04-03T08:13:03;6.60;99.90
16040;DHT22;8124;48.634;8.120;2023-04-03T08:18:06;6.90;99.90
16040;DHT22;8124;48.634;8.120;2023-04-03T08:23:11;6.90;99.90
16040;DHT22;8124;48.634;8.120;2023-04-03T08:28:23;7.10;99.90
16040;DHT22;8124;48.634;8.120;2023-04-03T08:33:26;7.10;99.90
16040;DHT22;8124;48.634;8.120;2023-04-03T08:38:32;7.40;99.90
16040;DHT22;8124;48.634;8.120;2023-04-03T08:43:57;7.20;99.90
16040;DHT22;8124;48.634;8.120;2023-04-03T08:49:01;7.30;99.90
16040;DHT22;8124;48.634;8.120;2023-04-03T08:54:14;7.80;99.90
16040;DHT22;8124;48.634;8.120;2023-04-03T08:59:29;7.50;99.90
16040;DHT22;8124;48.634;8.120;2023-04-03T09:05:11;7.70;99.90
16040;DHT22;8124;48.634;8.120;2023-04-03T09:10:23;7.90;99.90
16040;DHT22;8124;48.634;8.120;2023-04-03T09:15:30;7.70;99.90
16040;DHT22;8124;48.634;8.120;2023-04-03T09:21:13;7.40;99.90
16040;DHT22;8124;48.634;8.120;2023-04-03T09:26:45;7.20;99.90
16040;DHT22;8124;48.634;8.120;2023-04-03T09:31:56;7.20;99.80
16040;DHT22;8124;48.634;8.120;2023-04-03T09:37:09;7.40;99.30
16040;DHT22;8124;48.634;8.120;2023-04-03T09:47:21;7.70;98.80
16040;DHT22;8124;48.634;8.120;2023-04-03T09:52:26;7.70;98.00
16040;DHT22;8124;48.634;8.120;2023-04-03T09:57:32;7.70;97.40
16040;DHT22;8124;48.634;8.120;2023-04-03T10:02:38;8.10;97.50
16040;DHT22;8124;48.634;8.120;2023-04-03T10:07:43;7.90;96.60
16040;DHT22;8124;48.634;8.120;2023-04-03T10:13:06;8.20;96.60
16040;DHT22;8124;48.634;8.120;2023-04-03T10:18:29;8.00;96.20
16040;DHT22;8124;48.634;8.120;2023-04-03T10:23:41;8.10;96.00
16040;DHT22;8124;48.634;8.120;2023-04-03T10:28:48;8.00;95.40
16040;DHT22;8124;48.634;8.120;2023-04-03T10:34:01;7.90;94.80
16040;DHT22;8124;48.634;8.120;2023-04-03T10:39:21;8.50;95.60
16040;DHT22;8124;48.634;8.120;2023-04-03T10:44:35;8.50;95.30
16040;DHT22;8124;48.634;8.120;2023-04-03T10:49:48;8.60;94.80
16040;DHT22;8124;48.634;8.120;2023-04-03T10:55:09;8.70;94.50
16040;DHT22;8124;48.634;8.120;2023-04-03T11:00:31;8.40;93.60
16040;DHT22;8124;48.634;8.120;2023-04-03T11:05:42;8.80;93.80
16040;DHT22;8124;48.634;8.120;2023-04-03T11:10:48;8.70;93.30
16040;DHT22;8124;48.634;8.120;2023-04-03T11:15:53;8.40;92.60
16040;DHT22;8124;48.634;8.120;2023-04-03T11:21:02;8.10;92.00
16040;DHT22;8124;48.634;8.120;2023-04-03T11:26:10;8.50;92.20
16040;DHT22;8124;48.634;8.120;2023-04-03T11:31:27;8.40;91.70
16040;DHT22;8124;48.634;8.120;2023-04-03T11:36:39;8.30;91.50
16040;DHT22;8124;48.634;8.120;2023-04-03T11:41:49;8.40;91.30
16040;DHT22;8124;48.634;8.120;2023-04-03T11:47:04;8.50;91.10
16040;DHT22;8124;48.634;8.120;2023-04-03T11:52:11;8.50;90.80
16040;DHT22;8124;48.634;8.120;2023-04-03T12:02:57;8.50;90.50
16040;DHT22;8124;48.634;8.120;2023-04-03T12:08:24;8.80;90.70
16040;DHT22;8124;48.634;8.120;2023-04-03T12:13:31;8.80;90.50
16040;DHT22;8124;48.634;8.120;2023-04-03T12:18:56;8.50;89.70
16040;DHT22;8124;48.634;8.120;2023-04-03T12:24:04;8.40;88.90
16040;DHT22;8124;48.634;8.120;2023-04-03T12:29:21;8.30;88.60
16040;DHT22;8124;48.634;8.120;2023-04-03T12:34:38;8.30;88.30
16040;DHT22;8124;48.634;8.120;2023-04-03T12:39:54;8.50;88.80
16040;DHT22;8124;48.634;8.120;2023-04-03T12:45:01;8.30;88.10
16040;DHT22;8124;48.634;8.120;2023-04-03T12:50:17;8.20;87.40
16040;DHT22;8124;48.634;8.120;2023-04-03T12:55:22;8.40;87.50
16040;DHT22;8124;48.634;8.120;2023-04-03T13:00:31;8.30;87.00
16040;DHT22;8124;48.634;8.120;2023-04-03T13:05:35;8.10;86.70
16040;DHT22;8124;48.634;8.120;2023-04-03T13:10:52;8.10;85.60
16040;DHT22;8124;48.634;8.120;2023-04-03T13:15:56;8.30;85.80
16040;DHT22;8124;48.634;8.120;2023-04-03T13:21:03;8.30;85.60
16040;DHT22;8124;48.634;8.120;2023-04-03T13:26:09;8.40;85.70
16040;DHT22;8124;48.634;8.120;2023-04-03T13:31:19;8.40;85.20
16040;DHT22;8124;48.634;8.120;2023-04-03T13:36:27;8.10;84.50
16040;DHT22;8124;48.634;8.120;2023-04-03T13:41:35;8.10;84.40
16040;DHT22;8124;48.634;8.120;2023-04-03T13:46:38;8.00;84.00
16040;DHT22;8124;48.634;8.120;2023-04-03T13:51:41;8.20;84.90
16040;DHT22;8124;48.634;8.120;2023-04-03T13:56:54;8.30;84.50
16040;DHT22;8124;48.634;8.120;2023-04-03T14:02:14;8.20;84.10
16040;DHT22;8124;48.634;8.120;2023-04-03T14:07:18;8.30;84.10
16040;DHT22;8124;48.634;8.120;2023-04-03T14:12:26;8.20;83.70
16040;DHT22;8124;48.634;8.120;2023-04-03T14:17:32;8.20;83.20
16040;DHT22;8124;48.634;8.120;2023-04-03T14:22:35;8.20;83.20
16040;DHT22;8124;48.634;8.120;2023-04-03T14:27:41;8.10;82.70
16040;DHT22;8124;48.634;8.120;2023-04-03T14:32:45;8.20;82.50
16040;DHT22;8124;48.634;8.120;2023-04-03T14:37:49;8.50;83.10
16040;DHT22;8124;48.634;8.120;2023-04-03T14:42:54;8.30;82.30
16040;DHT22;8124;48.634;8.120;2023-04-03T14:47:59;8.20;81.70
16040;DHT22;8124;48.634;8.120;2023-04-03T14:53:02;8.40;81.60
16040;DHT22;8124;48.634;8.120;2023-04-03T14:58:12;8.20;81.00
16040;DHT22;8124;48.634;8.120;2023-04-03T15:03:17;8.10;80.20
16040;DHT22;8124;48.634;8.120;2023-04-03T15:08:24;8.30;80.10
16040;DHT22;8124;48.634;8.120;2023-04-03T15:13:29;8.30;79.80
16040;DHT22;8124;48.634;8.120;2023-04-03T15:18:35;8.50;79.70
16040;DHT22;8124;48.634;8.120;2023-04-03T15:23:39;8.50;79.20
16040;DHT22;8124;48.634;8.120;2023-04-03T15:28:45;8.50;78.80
16040;DHT22;8124;48.634;8.120;2023-04-03T15:33:47;8.40;78.50
16040;DHT22;8124;48.634;8.120;2023-04-03T15:38:50;8.20;77.60
16040;DHT22;8124;48.634;8.120;2023-04-03T15:43:55;8.30;77.50
16040;DHT22;8124;48.634;8.120;2023-04-03T15:48:58;8.00;76.50
16040;DHT22;8124;48.634;8.120;2023-04-03T15:54:01;8.10;76.20
16040;DHT22;8124;48.634;8.120;2023-04-03T15:59:16;8.10;75.80
16040;DHT22;8124;48.634;8.120;2023-04-03T16:04:19;8.20;75.50
16040;DHT22;8124;48.634;8.120;2023-04-03T16:09:23;8.40;75.40
16040;DHT22;8124;48.634;8.120;2023-04-03T16:14:27;8.50;75.30
16040;DHT22;8124;48.634;8.120;2023-04-03T16:19:32;8.40;74.80
16040;DHT22;8124;48.634;8.120;2023-04-03T16:24:35;8.20;74.00
16040;DHT22;8124;48.634;8.120;2023-04-03T16:29:41;8.20;73.70
16040;DHT22;8124;48.634;8.120;2023-04-03T16:34:44;8.70;74.40
16040;DHT22;8124;48.634;8.120;2023-04-03T16:39:47;8.30;73.30
16040;DHT22;8124;48.634;8.120;2023-04-03T16:44:51;8.00;72.20
16040;DHT22;8124;48.634;8.120;2023-04-03T16:49:54;8.20;72.10
16040;DHT22;8124;48.634;8.120;2023-04-03T16:54:58;7.90;71.20
16040;DHT22;8124;48.634;8.120;2023-04-03T17:00:03;8.00;71.10
16040;DHT22;8124;48.634;8.120;2023-04-03T17:05:08;8.10;71.10
16040;DHT22;8124;48.634;8.120;2023-04-03T17:10:12;8.00;70.70
16040;DHT22;8124;48.634;8.120;2023-04-03T17:15:17;8.00;70.60
16040;DHT22;8124;48.634;8.120;2023-04-03T17:20:21;7.80;70.10
16040;DHT22;8124;48.634;8.120;2023-04-03T17:25:24;8.30;71.10
16040;DHT22;8124;48.634;8.120;2023-04-03T17:30:28;8.20;70.80
16040;DHT22;8124;48.634;8.120;2023-04-03T17:35:31;8.20;70.80
16040;DHT22;8124;48.634;8.120;2023-04-03T17:40:34;8.00;70.00
16040;DHT22;8124;48.634;8.120;2023-04-03T17:45:39;7.90;69.50
16040;DHT22;8124;48.634;8.120;2023-04-03T17:50:42;7.90;69.20
16040;DHT22;8124;48.634;8.120;2023-04-03T17:55:45;7.80;68.70
16040;DHT22;8124;48.634;8.120;2023-04-03T18:00:50;7.60;68.10
16040;DHT22;8124;48.634;8.120;2023-04-03T18:05:55;7.40;67.50
16040;DHT22;8124;48.634;8.120;2023-04-03T18:10:58;7.50;67.40
16040;DHT22;8124;48.634;8.120;2023-04-03T18:16:04;7.40;67.10
16040;DHT22;8124;48.634;8.120;2023-04-03T18:21:09;7.50;67.20
16040;DHT22;8124;48.634;8.120;2023-04-03T18:26:14;7.50;67.00
16040;DHT22;8124;48.634;8.120;2023-04-03T18:31:23;7.60;67.00
16040;DHT22;8124;48.634;8.120;2023-04-03T18:36:28;7.50;66.60
16040;DHT22;8124;48.634;8.120;2023-04-03T18:41:32;7.70;66.70
16040;DHT22;8124;48.634;8.120;2023-04-03T18:46:38;7.80;66.70
16040;DHT22;8124;48.634;8.120;2023-04-03T18:51:41;7.80;66.60
16040;DHT22;8124;48.634;8.120;2023-04-03T19:02:28;7.90;67.20
16040;DHT22;8124;48.634;8.120;2023-04-03T19:07:31;7.90;67.30
16040;DHT22;8124;48.634;8.120;2023-04-03T19:12:35;7.80;67.20
16040;DHT22;8124;48.634;8.120;2023-04-03T19:17:39;7.80;67.20
16040;DHT22;8124;48.634;8.120;2023-04-03T19:22:43;7.90;67.40
16040;DHT22;8124;48.634;8.120;2023-04-03T19:27:47;7.40;66.50
16040;DHT22;8124;48.634;8.120;2023-04-03T19:32:54;8.00;73.10
16040;DHT22;8124;48.634;8.120;2023-04-03T19:37:57;8.00;72.60
16040;DHT22;8124;48.634;8.120;2023-04-03T19:43:00;7.90;71.90
16040;DHT22;8124;48.634;8.120;2023-04-03T19:48:05;7.40;70.80
16040;DHT22;8124;48.634;8.120;2023-04-03T19:53:09;7.10;70.30
16040;DHT22;8124;48.634;8.120;2023-04-03T19:58:15;7.10;70.60
16040;DHT22;8124;48.634;8.120;2023-04-03T20:03:19;7.00;71.00
16040;DHT22;8124;48.634;8.120;2023-04-03T20:08:23;6.70;70.80
16040;DHT22;8124;48.634;8.120;2023-04-03T20:13:26;6.60;71.20
16040;DHT22;8124;48.634;8.120;2023-04-03T20:18:32;6.40;71.80
16040;DHT22;8124;48.634;8.120;2023-04-03T20:23:36;6.50;73.50
16040;DHT22;8124;48.634;8.120;2023-04-03T20:28:39;6.40;75.00
16040;DHT22;8124;48.634;8.120;2023-04-03T20:33:43;6.50;76.40
16040;DHT22;8124;48.634;8.120;2023-04-03T20:38:47;6.60;77.50
16040;DHT22;8124;48.634;8.120;2023-04-03T20:43:50;6.60;78.00
16040;DHT22;8124;48.634;8.120;2023-04-03T20:48:54;6.70;78.70
16040;DHT22;8124;48.634;8.120;2023-04-03T20:53:58;6.60;78.80
16040;DHT22;8124;48.634;8.120;2023-04-03T20:59:01;6.50;79.00
16040;DHT22;8124;48.634;8.120;2023-04-03T21:04:12;6.50;79.40
16040;DHT22;8124;48.634;8.120;2023-04-03T21:20:39;6.30;80.40
16040;DHT22;8124;48.634;8.120;2023-04-03T21:25:45;6.30;81.00
16040;DHT22;8124;48.634;8.120;2023-04-03T21:30:48;6.30;81.80
16040;DHT22;8124;48.634;8.120;2023-04-03T21:35:52;6.10;82.30
16040;DHT22;8124;48.634;8.120;2023-04-03T21:40:59;6.10;83.10
16040;DHT22;8124;48.634;8.120;2023-04-03T21:46:02;6.00;83.40
16040;DHT22;8124;48.634;8.120;2023-04-03T21:51:07;5.90;83.90
16040;DHT22;8124;48.634;8.120;2023-04-03T21:56:11;5.90;84.40
16040;DHT22;8124;48.634;8.120;2023-04-03T22:01:15;5.70;84.70
16040;DHT22;8124;48.634;8.120;2023-04-03T22:06:19;5.80;85.50
16040;DHT22;8124;48.634;8.120;2023-04-03T22:11:22;5.70;85.80
16040;DHT22;8124;48.634;8.120;2023-04-03T22:16:28;5.70;86.50
16040;DHT22;8124;48.634;8.120;2023-04-03T22:21:32;5.50;86.70
16040;DHT22;8124;48.634;8.120;2023-04-03T22:26:35;5.20;87.10
16040;DHT22;8124;48.634;8.120;2023-04-03T22:31:40;5.20;88.30
16040;DHT22;8124;48.634;8.120;2023-04-03T22:36:44;5.30;89.90
16040;DHT22;8124;48.634;8.120;2023-04-03T22:41:47;5.30;90.20
16040;DHT22;8124;48.634;8.120;2023-04-03T22:46:51;5.30;90.50
16040;DHT22;8124;48.634;8.120;2023-04-03T22:51:55;5.20;90.70
16040;DHT22;8124;48.634;8.120;2023-04-03T22:56:58;5.00;90.70
16040;DHT22;8124;48.634;8.120;2023-04-03T23:02:01;4.90;91.30
16040;DHT22;8124;48.634;8.120;2023-04-03T23:07:06;5.00;91.80
16040;DHT22;8124;48.634;8.120;2023-04-03T23:12:09;5.00;92.10
16040;DHT22;8124;48.634;8.120;2023-04-03T23:17:12;4.90;92.10
16040;DHT22;8124;48.634;8.120;2023-04-03T23:22:16;4.90;92.30
16040;DHT22;8124;48.634;8.120;2023-04-03T23:27:19;4.80;92.40
16040;DHT22;8124;48.634;8.120;2023-04-03T23:32:22;4.70;92.50
16040;DHT22;8124;48.634;8.120;2023-04-03T23:37:26;4.60;92.50
16040;DHT22;8124;48.634;8.120;2023-04-03T23:42:29;4.60;92.90
16040;DHT22;8124;48.634;8.120;2023-04-03T23:47:32;4.50;93.20
16040;DHT22;8124;48.634;8.120;2023-04-03T23:52:37;4.50;93.80
16040;DHT22;8124;48.634;8.120;2023-04-03T23:57:40;4.60;94.40
